Hauptseite
METAR-TAF:

METAR-TAF

Flughäfen :

Flugplatz Hamburg-Finkenwerder

Finkenwerder, Deutschland

Breite: 53-32N, Länge: 009-50E, Höhe: 5 m

Beobachtung

Neuester Wetterbericht von vor 30 Minuten, um 19:20 UTC
Wind 3 kt aus Süd/Südost
Temperatur 21°C
Luftfeuchtigkeit 60%
Luftdruck 1016 hPa
Sichtweite 10 km oder mehr

METAR: EDHI 051920Z AUTO 15003KT 9999 // NCD 21/13 Q1016

Zeit: 21:50 (19:50 UTC)

Prognose

Neuester Wetterbericht von vor 2 Stunden und 50 Minuten, um 17:00 UTC
Gültige Prognose vom 05 um 18 UTC bis 05 um 21 UTC
Wind 6 kt aus Südwest
Sichtweite 10 km oder mehr
keine Wolken unter 1500 m und keine Kumulonimbus oder Gewitterwolken
Übergehend zu
vom 05 um 18 UTC bis 05 um 20 UTC
Wind 4 kt aus Süd/Südost

TAF: EDHI 051700Z 0518/0521 22006KT CAVOK BECMG 0518/0520 15004KT

Wetterbeobachtungen und Prognosen von mehr als 4000 Flughäfen (METAR und TAF Bericht).

Die verfügbaren Stationen werden durch gelbe und rote Markierungen auf der Karte dargestellt.

Führen Sie die Maus auf sie, um den Namen der Station zu sehen.

Darauf klicken, um die Beobachtung von Wetterbeobachtungen und Prognosen zu sehen.

Um die Karte zu ändern : klicken Sie auf den grünen Tasten mit einem schwarzen Kreuz Zum Vergrößern, auf den grünen Button mit einem Gedankenstrich zu verkleinern, oder auf die grünen Pfeile für benachbarte Karten.


METAR-TAF: